Impacts METAR Board
IDs:

KDFW - Dallas-Ft Worth Intl, TX, US

Updated at: 2300 UTC 01 Mar 2021
Potential Impact None Slight Moderate High
Time 01/11Z 01/12Z 01/13Z 01/14Z 01/15Z 01/16Z 01/17Z 01/18Z 01/19Z 01/20Z 01/21Z 01/22Z 01/23Z
Temp48 48 46 45 44 47 50 51 52 54 56 58 57
Dewpt36 34 35 35 40 40 40 38 37 37 36 34 33
Altim30.19 30.22 30.21 30.21 30.24 30.24 30.27 30.29 30.28 30.26 30.26 30.25 30.25
VIS10 10 10 10 7 10 10 10 10 10 10 10 10
CIG100 75 100 95 75 110 180 180 100 110 110 120 100
CoverOVCOVCOVCOVCOVCBKNBKNBKNBKNBKNBKNBKNBKN
FltCatVFRVFRVFRVFRVFRVFRVFRVFRVFRVFRVFRVFRVFR
WX-------RARA---RA------------
WDir350101010110203603603603403603010
WSpd16 18 18 16 7 9 12 12 10 11 7 11 11
WGst-- 25 26 25 -- -- -- 20 -- -- -- 17 --
Raw hourly METARs
KDFW 011053Z 35016KT 10SM FEW045 OVC100 09/02 A3019 RMK AO2 LTG DSNT S RAB09E28 SLP220 OCNL LTGIC DSNT E-SE CB DSNT E-SE MOV NE P0000 T00890022 $
KDFW 011153Z 01018G25KT 10SM BKN075 OVC095 09/01 A3022 RMK AO2 PK WND 01026/1131 SLP232 60008 70017 T00890011 10111 20072 53035 $
KDFW 011253Z 01018G26KT 10SM OVC100 08/02 A3021 RMK AO2 PK WND 02027/1230 RAB03E34 SLP227 P0000 T00780017 $
KDFW 011353Z 01016G25KT 10SM -RA OVC095 07/02 A3021 RMK AO2 PK WND 02029/1316 RAB18 PRESRR SLP228 P0000 T00720017 $
KDFW 011453Z 11007KT 7SM RA FEW050 BKN075 OVC090 07/04 A3024 RMK AO2 SLP239 P0011 60011 T00670044 53005
KDFW 011553Z 02009KT 10SM FEW002 SCT080 BKN110 08/04 A3024 RMK AO2 RAE09 SLP239 FU FEW002 SW P0000 T00830044
KDFW 011653Z 36012KT 10SM -RA FEW024 SCT033 SCT110 BKN180 10/04 A3027 RMK AO2 RAB52 SLP249 P0000 T01000044
KDFW 011753Z 36012G20KT 10SM FEW025 SCT100 BKN180 11/03 A3029 RMK AO2 RAE02 SLP254 P0000 60011 T01060033 10106 20061 53016
KDFW 011853Z 36010KT 10SM FEW028 BKN100 11/03 A3028 RMK AO2 SLP250 T01110028
KDFW 011953Z 34011KT 10SM FEW028 BKN110 12/03 A3026 RMK AO2 SLP246 T01220028
KDFW 012053Z 36007KT 10SM FEW030 BKN110 13/02 A3026 RMK AO2 SLP246 T01330022 56009
KDFW 012153Z 03011G17KT 10SM FEW030 BKN120 14/01 A3025 RMK AO2 SLP241 T01440011
KDFW 012253Z 01011KT 10SM FEW030 BKN100 BKN130 14/01 A3025 RMK AO2 SLP240 T01390006



Page loaded:  23:31 UTC  |   03:31 PM Pacific  |   04:31 PM Mountain  |   05:31 PM Central  |   06:31 PM Eastern

 

ADVISORIES

FORECASTS

FORECASTS

OBSERVATIONS

USER TOOLS

ABOUT US